Potsdam, NY

7:36 AM EST on February 28, 2015 (GMT -0500)
Wheeler-Sack Army Air Field | Change Station
CLOSE
Current Station
Airport
Location: Fort Drum,
Elevation: 679 ft
Nearby Weather Stations

Elev 679 ft 44.06 °N, 75.72 °W | Updated 38 minutes ago

Partly Cloudy
Partly Cloudy
-2 °F
Feels Like -17 °F
N
9
Wind Variable Wind from South

Today
High -- | Low -- °F
--% Chance of Precip.
Yesterday
High -- | Low -- °F
Precip. -- in
6:39 AM 5:45 PM
Waxing Gibbous, 77% visible
Pressure 30.74 in
Visibility 10.0 miles
Clouds Clear
Windchill -17 °F
Dew Point -5 °F
Humidity 84%
Rainfall 0.00 in
Snow Depth Not available.
UV 0 out of 12
Pollen .40 out of 12
Air Quality Not available.
Flu Activity Not available.
METAR KGTB 281158Z AUTO 17008KT 10SM CLR M19/M21 A3068 RMK AO2 SLP408 60000 T11861207 11135 21204 52015

More Conditions Fewer Conditions

Pressure 30.74 in
Visibility 10.0 miles
Clouds Clear
Windchill -17 °F
Dew Point -5 °F
Humidity 84%
Rainfall 0.00 in
Snow Depth Not available.
UV 0 out of 12
Pollen .40 out of 12
Air Quality Not available.
Flu Activity Not available.
METAR KGTB 281158Z AUTO 17008KT 10SM CLR M19/M21 A3068 RMK AO2 SLP408 60000 T11861207 11135 21204 52015

More Conditions Fewer Conditions

10-Day Weather Forecast

Almanac

Astronomy

Feb. 28, 2015 Rise Set
Actual Time
Civil Twilight
Nautical Twilight
Astronomical Twilight
Moon
Length of Visible Light
Length of Day
Tomorrow will be .
, % of the Moon is Illuminated

Today's Extremes

State Highs State Lows

Community

WunderPhotos

Upload Photos

1,800,999 photos uploaded!

WunderBlogs® & News

Nearby

Air Quality

  Air Quality AQ Index Pollutant
Not available.

Snow Depth

Station Depth Elevation

Earthquake Activity

City Distance Mag. Time & Date
Minimum magnitude displayed is 2.5.

Coastal Water Temperatures

Place Temperature

Nearby Weather Stations